sensor_id;sensor_type;location;lat;lon;timestamp;pressure;altitude;pressure_sealevel;temperature;humidity
25080;BME280;13071;48.868;9.996;2023-03-19T00:02:10;96216.38;;;8.79;82.19
25080;BME280;13071;48.868;9.996;2023-03-19T00:04:36;96220.59;;;8.68;82.13
25080;BME280;13071;48.868;9.996;2023-03-19T00:07:03;96217.47;;;8.57;81.87
25080;BME280;13071;48.868;9.996;2023-03-19T00:09:30;96217.06;;;8.47;82.46
25080;BME280;13071;48.868;9.996;2023-03-19T00:11:56;96221.66;;;8.46;82.93
25080;BME280;13071;48.868;9.996;2023-03-19T00:14:24;96220.72;;;8.42;82.54
25080;BME280;13071;48.868;9.996;2023-03-19T00:16:51;96222.75;;;8.45;82.52
25080;BME280;13071;48.868;9.996;2023-03-19T00:19:17;96230.66;;;8.50;82.52
25080;BME280;13071;48.868;9.996;2023-03-19T00:21:45;96223.47;;;8.63;81.97
25080;BME280;13071;48.868;9.996;2023-03-19T00:24:11;96226.91;;;8.72;81.69
25080;BME280;13071;48.868;9.996;2023-03-19T00:26:38;96225.78;;;8.73;81.34
25080;BME280;13071;48.868;9.996;2023-03-19T00:29:05;96228.00;;;8.71;81.04
25080;BME280;13071;48.868;9.996;2023-03-19T00:31:34;96226.75;;;8.68;81.68
25080;BME280;13071;48.868;9.996;2023-03-19T00:34:01;96232.00;;;8.65;81.88
25080;BME280;13071;48.868;9.996;2023-03-19T00:36:27;96232.69;;;8.62;82.29
25080;BME280;13071;48.868;9.996;2023-03-19T00:38:54;96231.88;;;8.61;82.43
25080;BME280;13071;48.868;9.996;2023-03-19T00:41:21;96233.31;;;8.59;82.57
25080;BME280;13071;48.868;9.996;2023-03-19T00:43:51;96231.16;;;8.52;82.61
25080;BME280;13071;48.868;9.996;2023-03-19T00:46:18;96237.28;;;8.61;82.24
25080;BME280;13071;48.868;9.996;2023-03-19T00:48:46;96239.19;;;8.61;82.35
25080;BME280;13071;48.868;9.996;2023-03-19T00:51:13;96242.38;;;8.54;82.90
25080;BME280;13071;48.868;9.996;2023-03-19T00:53:41;96245.13;;;8.46;83.27
25080;BME280;13071;48.868;9.996;2023-03-19T00:56:08;96239.44;;;8.47;83.07
25080;BME280;13071;48.868;9.996;2023-03-19T00:58:35;96245.94;;;8.46;83.14
25080;BME280;13071;48.868;9.996;2023-03-19T01:01:03;96245.00;;;8.42;83.21
25080;BME280;13071;48.868;9.996;2023-03-19T01:03:30;96250.84;;;8.44;83.66
25080;BME280;13071;48.868;9.996;2023-03-19T01:05:58;96242.84;;;8.56;83.96
25080;BME280;13071;48.868;9.996;2023-03-19T01:08:24;96243.03;;;8.51;83.90
25080;BME280;13071;48.868;9.996;2023-03-19T01:10:51;96254.94;;;8.50;84.40
25080;BME280;13071;48.868;9.996;2023-03-19T01:13:18;96253.69;;;8.48;84.87
25080;BME280;13071;48.868;9.996;2023-03-19T01:15:45;96257.63;;;8.50;84.95
25080;BME280;13071;48.868;9.996;2023-03-19T01:18:11;96258.56;;;8.54;85.33
25080;BME280;13071;48.868;9.996;2023-03-19T01:20:39;96258.31;;;8.47;85.49
25080;BME280;13071;48.868;9.996;2023-03-19T01:23:07;96256.06;;;8.49;85.50
25080;BME280;13071;48.868;9.996;2023-03-19T01:25:34;96251.13;;;8.51;85.23
25080;BME280;13071;48.868;9.996;2023-03-19T01:28:01;96253.53;;;8.53;85.59
25080;BME280;13071;48.868;9.996;2023-03-19T01:30:28;96255.88;;;8.54;85.46
25080;BME280;13071;48.868;9.996;2023-03-19T01:32:54;96253.03;;;8.51;85.69
25080;BME280;13071;48.868;9.996;2023-03-19T01:35:21;96249.88;;;8.49;86.00
25080;BME280;13071;48.868;9.996;2023-03-19T01:37:47;96255.78;;;8.42;86.96
25080;BME280;13071;48.868;9.996;2023-03-19T01:40:15;96249.59;;;8.42;87.00
25080;BME280;13071;48.868;9.996;2023-03-19T01:42:56;96252.13;;;8.47;87.28
25080;BME280;13071;48.868;9.996;2023-03-19T01:45:29;96253.53;;;8.53;86.70
25080;BME280;13071;48.868;9.996;2023-03-19T01:47:56;96256.03;;;8.58;85.76
25080;BME280;13071;48.868;9.996;2023-03-19T01:50:25;96255.38;;;8.61;85.93
25080;BME280;13071;48.868;9.996;2023-03-19T01:52:52;96248.06;;;8.61;86.12
25080;BME280;13071;48.868;9.996;2023-03-19T01:55:20;96253.16;;;8.63;85.70
25080;BME280;13071;48.868;9.996;2023-03-19T01:57:47;96248.69;;;8.67;85.37
25080;BME280;13071;48.868;9.996;2023-03-19T02:00:14;96251.97;;;8.73;84.49
25080;BME280;13071;48.868;9.996;2023-03-19T02:02:42;96253.03;;;8.80;83.91
25080;BME280;13071;48.868;9.996;2023-03-19T02:05:12;96247.75;;;8.84;83.64
25080;BME280;13071;48.868;9.996;2023-03-19T02:07:41;96254.75;;;8.85;83.50
25080;BME280;13071;48.868;9.996;2023-03-19T02:10:11;96249.81;;;8.87;83.29
25080;BME280;13071;48.868;9.996;2023-03-19T02:12:40;96249.84;;;8.57;86.74
25080;BME280;13071;48.868;9.996;2023-03-19T02:15:07;96253.28;;;8.66;85.52
25080;BME280;13071;48.868;9.996;2023-03-19T02:17:33;96253.91;;;8.63;85.97
25080;BME280;13071;48.868;9.996;2023-03-19T02:20:03;96253.91;;;8.63;86.04
25080;BME280;13071;48.868;9.996;2023-03-19T02:22:34;96255.38;;;8.61;85.75
25080;BME280;13071;48.868;9.996;2023-03-19T02:25:06;96255.06;;;8.62;85.97
25080;BME280;13071;48.868;9.996;2023-03-19T02:27:37;96260.16;;;8.55;87.23
25080;BME280;13071;48.868;9.996;2023-03-19T02:30:17;96260.53;;;8.45;89.38
25080;BME280;13071;48.868;9.996;2023-03-19T02:32:44;96266.66;;;8.54;88.61
25080;BME280;13071;48.868;9.996;2023-03-19T02:35:11;96269.66;;;8.61;88.12
25080;BME280;13071;48.868;9.996;2023-03-19T02:37:37;96268.66;;;8.66;87.66
25080;BME280;13071;48.868;9.996;2023-03-19T02:40:07;96277.38;;;8.72;86.97
25080;BME280;13071;48.868;9.996;2023-03-19T02:42:35;96281.91;;;8.80;86.59
25080;BME280;13071;48.868;9.996;2023-03-19T02:45:04;96291.78;;;9.05;85.77
25080;BME280;13071;48.868;9.996;2023-03-19T02:47:31;96286.31;;;9.14;84.78
25080;BME280;13071;48.868;9.996;2023-03-19T02:49:58;96287.31;;;9.30;84.19
25080;BME280;13071;48.868;9.996;2023-03-19T02:52:24;96286.38;;;9.05;85.14
25080;BME280;13071;48.868;9.996;2023-03-19T02:54:51;96286.69;;;8.83;87.47
25080;BME280;13071;48.868;9.996;2023-03-19T02:57:17;96299.09;;;8.75;87.92
25080;BME280;13071;48.868;9.996;2023-03-19T02:59:44;96300.22;;;8.36;90.14
25080;BME280;13071;48.868;9.996;2023-03-19T03:02:12;96311.09;;;8.57;89.86
25080;BME280;13071;48.868;9.996;2023-03-19T03:04:39;96319.22;;;8.48;89.99
25080;BME280;13071;48.868;9.996;2023-03-19T03:07:06;96320.06;;;8.32;90.75
25080;BME280;13071;48.868;9.996;2023-03-19T03:09:33;96322.59;;;8.19;92.56
25080;BME280;13071;48.868;9.996;2023-03-19T03:12:00;96326.50;;;8.48;90.45
25080;BME280;13071;48.868;9.996;2023-03-19T03:14:27;96318.44;;;8.77;88.68
25080;BME280;13071;48.868;9.996;2023-03-19T03:16:54;96314.59;;;8.87;88.38
25080;BME280;13071;48.868;9.996;2023-03-19T03:19:23;96331.22;;;8.89;88.79
25080;BME280;13071;48.868;9.996;2023-03-19T03:21:49;96326.91;;;8.67;90.19
25080;BME280;13071;48.868;9.996;2023-03-19T03:24:16;96333.22;;;8.71;90.21
25080;BME280;13071;48.868;9.996;2023-03-19T03:26:43;96320.97;;;8.82;90.39
25080;BME280;13071;48.868;9.996;2023-03-19T03:29:10;96333.53;;;8.70;90.01
25080;BME280;13071;48.868;9.996;2023-03-19T03:31:36;96331.47;;;8.75;90.10
25080;BME280;13071;48.868;9.996;2023-03-19T03:34:03;96332.25;;;8.76;90.36
25080;BME280;13071;48.868;9.996;2023-03-19T03:36:31;96340.22;;;8.72;90.39
25080;BME280;13071;48.868;9.996;2023-03-19T03:38:58;96357.38;;;8.68;90.01
25080;BME280;13071;48.868;9.996;2023-03-19T03:41:25;96355.06;;;8.87;88.86
25080;BME280;13071;48.868;9.996;2023-03-19T03:43:51;96349.25;;;8.76;89.21
25080;BME280;13071;48.868;9.996;2023-03-19T03:46:18;96359.47;;;8.62;89.89
25080;BME280;13071;48.868;9.996;2023-03-19T03:48:45;96354.34;;;8.69;90.62
25080;BME280;13071;48.868;9.996;2023-03-19T03:51:13;96358.31;;;8.72;90.23
25080;BME280;13071;48.868;9.996;2023-03-19T03:53:41;96354.91;;;8.83;89.85
25080;BME280;13071;48.868;9.996;2023-03-19T03:56:08;96352.78;;;8.68;90.05
25080;BME280;13071;48.868;9.996;2023-03-19T03:58:34;96356.09;;;8.65;90.58
25080;BME280;13071;48.868;9.996;2023-03-19T04:01:02;96356.75;;;8.62;90.75
25080;BME280;13071;48.868;9.996;2023-03-19T04:03:28;96358.97;;;8.60;91.39
25080;BME280;13071;48.868;9.996;2023-03-19T04:05:55;96360.88;;;8.59;91.99
25080;BME280;13071;48.868;9.996;2023-03-19T04:08:22;96361.38;;;8.61;92.46
25080;BME280;13071;48.868;9.996;2023-03-19T04:10:50;96349.63;;;8.57;92.69
25080;BME280;13071;48.868;9.996;2023-03-19T04:13:16;96353.75;;;8.55;92.77
25080;BME280;13071;48.868;9.996;2023-03-19T04:15:43;96359.78;;;8.60;92.97
25080;BME280;13071;48.868;9.996;2023-03-19T04:18:10;96361.22;;;8.58;91.76
25080;BME280;13071;48.868;9.996;2023-03-19T04:20:37;96358.41;;;8.84;89.70
25080;BME280;13071;48.868;9.996;2023-03-19T04:23:05;96369.84;;;8.81;89.10
25080;BME280;13071;48.868;9.996;2023-03-19T04:25:32;96366.97;;;8.86;89.49
25080;BME280;13071;48.868;9.996;2023-03-19T04:28:00;96367.66;;;8.74;89.27
25080;BME280;13071;48.868;9.996;2023-03-19T04:30:28;96371.34;;;8.61;90.63
25080;BME280;13071;48.868;9.996;2023-03-19T04:32:54;96369.78;;;8.60;91.17
25080;BME280;13071;48.868;9.996;2023-03-19T04:35:21;96372.50;;;8.51;91.57
25080;BME280;13071;48.868;9.996;2023-03-19T04:37:47;96374.66;;;8.66;91.26
25080;BME280;13071;48.868;9.996;2023-03-19T04:40:14;96368.31;;;8.71;90.74
25080;BME280;13071;48.868;9.996;2023-03-19T04:42:41;96369.56;;;8.74;89.85
25080;BME280;13071;48.868;9.996;2023-03-19T04:45:10;96372.41;;;8.77;89.83
25080;BME280;13071;48.868;9.996;2023-03-19T04:47:37;96375.00;;;8.65;91.04
25080;BME280;13071;48.868;9.996;2023-03-19T04:50:05;96372.19;;;8.53;91.77
25080;BME280;13071;48.868;9.996;2023-03-19T04:52:32;96367.88;;;8.60;92.39
25080;BME280;13071;48.868;9.996;2023-03-19T04:54:59;96381.47;;;8.73;91.94
25080;BME280;13071;48.868;9.996;2023-03-19T04:57:25;96376.44;;;8.54;92.21
25080;BME280;13071;48.868;9.996;2023-03-19T04:59:52;96381.56;;;8.47;93.34
25080;BME280;13071;48.868;9.996;2023-03-19T05:02:20;96382.19;;;8.52;94.09
25080;BME280;13071;48.868;9.996;2023-03-19T05:04:47;96389.66;;;8.47;94.55
25080;BME280;13071;48.868;9.996;2023-03-19T05:07:14;96384.13;;;8.43;95.35
25080;BME280;13071;48.868;9.996;2023-03-19T05:09:41;96390.16;;;8.32;97.00
25080;BME280;13071;48.868;9.996;2023-03-19T05:12:08;96390.78;;;8.29;98.32
25080;BME280;13071;48.868;9.996;2023-03-19T05:14:35;96389.06;;;8.33;99.18
25080;BME280;13071;48.868;9.996;2023-03-19T05:17:02;96394.91;;;8.43;99.80
25080;BME280;13071;48.868;9.996;2023-03-19T05:19:30;96389.84;;;8.33;100.00
25080;BME280;13071;48.868;9.996;2023-03-19T05:21:58;96388.44;;;8.01;100.00
25080;BME280;13071;48.868;9.996;2023-03-19T05:24:24;96394.47;;;7.98;100.00
25080;BME280;13071;48.868;9.996;2023-03-19T05:26:51;96392.72;;;7.85;100.00
25080;BME280;13071;48.868;9.996;2023-03-19T05:29:18;96399.56;;;7.74;100.00
25080;BME280;13071;48.868;9.996;2023-03-19T05:31:44;96400.78;;;7.85;100.00
25080;BME280;13071;48.868;9.996;2023-03-19T05:34:12;96404.00;;;7.78;100.00
25080;BME280;13071;48.868;9.996;2023-03-19T05:36:40;96401.44;;;8.08;100.00
25080;BME280;13071;48.868;9.996;2023-03-19T05:39:06;96409.19;;;8.18;100.00
25080;BME280;13071;48.868;9.996;2023-03-19T05:41:33;96410.44;;;8.20;100.00
25080;BME280;13071;48.868;9.996;2023-03-19T05:44:00;96406.47;;;8.27;100.00
25080;BME280;13071;48.868;9.996;2023-03-19T05:46:26;96393.50;;;8.37;100.00
25080;BME280;13071;48.868;9.996;2023-03-19T05:48:53;96393.66;;;8.32;100.00
25080;BME280;13071;48.868;9.996;2023-03-19T05:51:19;96403.97;;;8.13;100.00
25080;BME280;13071;48.868;9.996;2023-03-19T05:53:47;96407.47;;;8.13;100.00
25080;BME280;13071;48.868;9.996;2023-03-19T05:56:14;96409.34;;;8.30;100.00
25080;BME280;13071;48.868;9.996;2023-03-19T05:58:41;96405.53;;;8.31;100.00
25080;BME280;13071;48.868;9.996;2023-03-19T06:01:07;96415.22;;;8.32;100.00
25080;BME280;13071;48.868;9.996;2023-03-19T06:03:34;96411.25;;;8.38;100.00
25080;BME280;13071;48.868;9.996;2023-03-19T06:06:01;96409.81;;;8.41;100.00
25080;BME280;13071;48.868;9.996;2023-03-19T06:08:28;96409.81;;;8.41;100.00
25080;BME280;13071;48.868;9.996;2023-03-19T06:10:56;96425.03;;;8.28;100.00
25080;BME280;13071;48.868;9.996;2023-03-19T06:13:22;96434.25;;;8.36;100.00
25080;BME280;13071;48.868;9.996;2023-03-19T06:15:49;96438.50;;;8.45;100.00
25080;BME280;13071;48.868;9.996;2023-03-19T06:18:16;96443.09;;;8.62;100.00
25080;BME280;13071;48.868;9.996;2023-03-19T06:20:43;96450.25;;;8.58;100.00
25080;BME280;13071;48.868;9.996;2023-03-19T06:23:11;96439.28;;;8.54;100.00
25080;BME280;13071;48.868;9.996;2023-03-19T06:25:38;96449.63;;;8.52;100.00
25080;BME280;13071;48.868;9.996;2023-03-19T06:28:06;96458.50;;;8.53;100.00
25080;BME280;13071;48.868;9.996;2023-03-19T06:30:33;96454.84;;;8.57;100.00
25080;BME280;13071;48.868;9.996;2023-03-19T06:32:59;96454.03;;;8.65;100.00
25080;BME280;13071;48.868;9.996;2023-03-19T06:35:26;96457.47;;;8.75;100.00
25080;BME280;13071;48.868;9.996;2023-03-19T06:37:53;96469.06;;;8.75;100.00
25080;BME280;13071;48.868;9.996;2023-03-19T06:40:20;96464.78;;;8.74;100.00
25080;BME280;13071;48.868;9.996;2023-03-19T06:42:47;96461.13;;;8.79;100.00
25080;BME280;13071;48.868;9.996;2023-03-19T06:45:15;96463.31;;;8.85;100.00
25080;BME280;13071;48.868;9.996;2023-03-19T06:47:44;96472.34;;;8.89;100.00
25080;BME280;13071;48.868;9.996;2023-03-19T06:50:11;96473.28;;;8.93;100.00
25080;BME280;13071;48.868;9.996;2023-03-19T06:52:37;96474.59;;;8.87;100.00
25080;BME280;13071;48.868;9.996;2023-03-19T06:55:05;96474.44;;;8.92;100.00
25080;BME280;13071;48.868;9.996;2023-03-19T06:57:32;96470.41;;;8.98;100.00
25080;BME280;13071;48.868;9.996;2023-03-19T06:59:59;96466.94;;;8.98;100.00
25080;BME280;13071;48.868;9.996;2023-03-19T07:02:27;96477.41;;;8.99;100.00
25080;BME280;13071;48.868;9.996;2023-03-19T07:04:53;96477.59;;;8.94;100.00
25080;BME280;13071;48.868;9.996;2023-03-19T07:07:20;96484.88;;;9.02;100.00
25080;BME280;13071;48.868;9.996;2023-03-19T07:09:47;96475.81;;;9.07;100.00
25080;BME280;13071;48.868;9.996;2023-03-19T07:12:14;96475.81;;;9.07;100.00
25080;BME280;13071;48.868;9.996;2023-03-19T07:14:40;96484.53;;;9.04;100.00
25080;BME280;13071;48.868;9.996;2023-03-19T07:17:07;96480.63;;;8.93;100.00
25080;BME280;13071;48.868;9.996;2023-03-19T07:19:35;96474.22;;;9.06;100.00
25080;BME280;13071;48.868;9.996;2023-03-19T07:22:01;96477.19;;;9.22;100.00
25080;BME280;13071;48.868;9.996;2023-03-19T07:24:28;96478.91;;;9.26;100.00
25080;BME280;13071;48.868;9.996;2023-03-19T07:26:54;96480.38;;;9.15;100.00
25080;BME280;13071;48.868;9.996;2023-03-19T07:29:22;96482.41;;;9.18;100.00
25080;BME280;13071;48.868;9.996;2023-03-19T07:31:49;96477.63;;;9.24;100.00
25080;BME280;13071;48.868;9.996;2023-03-19T07:34:16;96475.41;;;9.26;100.00
25080;BME280;13071;48.868;9.996;2023-03-19T07:36:43;96474.78;;;9.20;100.00
25080;BME280;13071;48.868;9.996;2023-03-19T07:39:11;96478.41;;;9.24;100.00
25080;BME280;13071;48.868;9.996;2023-03-19T07:41:38;96479.69;;;9.27;100.00
25080;BME280;13071;48.868;9.996;2023-03-19T07:44:05;96488.31;;;9.49;100.00
25080;BME280;13071;48.868;9.996;2023-03-19T07:46:31;96490.66;;;9.60;100.00
25080;BME280;13071;48.868;9.996;2023-03-19T07:48:58;96500.47;;;9.64;100.00
25080;BME280;13071;48.868;9.996;2023-03-19T07:51:25;96486.72;;;9.78;100.00
25080;BME280;13071;48.868;9.996;2023-03-19T07:53:53;96484.63;;;9.83;100.00
25080;BME280;13071;48.868;9.996;2023-03-19T07:56:19;96480.28;;;9.91;100.00
25080;BME280;13071;48.868;9.996;2023-03-19T07:58:46;96483.03;;;9.82;100.00
25080;BME280;13071;48.868;9.996;2023-03-19T08:01:12;96485.31;;;10.01;100.00
25080;BME280;13071;48.868;9.996;2023-03-19T08:03:39;96480.28;;;10.12;100.00
25080;BME280;13071;48.868;9.996;2023-03-19T08:06:06;96480.09;;;10.17;100.00
25080;BME280;13071;48.868;9.996;2023-03-19T08:08:32;96482.16;;;10.20;100.00
25080;BME280;13071;48.868;9.996;2023-03-19T08:11:02;96474.41;;;10.10;100.00
25080;BME280;13071;48.868;9.996;2023-03-19T08:13:28;96476.69;;;10.28;100.00
25080;BME280;13071;48.868;9.996;2023-03-19T08:15:55;96484.66;;;10.46;100.00
25080;BME280;13071;48.868;9.996;2023-03-19T08:18:22;96480.53;;;10.60;100.00
25080;BME280;13071;48.868;9.996;2023-03-19T08:20:49;96478.53;;;10.69;100.00
25080;BME280;13071;48.868;9.996;2023-03-19T08:23:15;96480.25;;;10.74;100.00
25080;BME280;13071;48.868;9.996;2023-03-19T08:25:42;96486.31;;;10.71;100.00
25080;BME280;13071;48.868;9.996;2023-03-19T08:28:10;96476.75;;;10.86;98.87
25080;BME280;13071;48.868;9.996;2023-03-19T08:30:37;96486.19;;;11.12;99.21
25080;BME280;13071;48.868;9.996;2023-03-19T08:33:04;96489.25;;;11.35;98.12
25080;BME280;13071;48.868;9.996;2023-03-19T08:35:31;96489.72;;;11.37;96.50
25080;BME280;13071;48.868;9.996;2023-03-19T08:37:57;96481.91;;;11.36;97.26
25080;BME280;13071;48.868;9.996;2023-03-19T08:40:24;96482.50;;;11.41;98.52
25080;BME280;13071;48.868;9.996;2023-03-19T08:42:50;96483.50;;;11.37;99.02
25080;BME280;13071;48.868;9.996;2023-03-19T08:45:19;96478.41;;;11.35;97.49
25080;BME280;13071;48.868;9.996;2023-03-19T08:47:46;96475.63;;;11.44;94.23
25080;BME280;13071;48.868;9.996;2023-03-19T08:50:14;96490.06;;;11.48;96.76
25080;BME280;13071;48.868;9.996;2023-03-19T08:52:41;96491.53;;;11.57;97.04
25080;BME280;13071;48.868;9.996;2023-03-19T08:55:08;96487.09;;;11.65;96.74
25080;BME280;13071;48.868;9.996;2023-03-19T08:57:35;96483.59;;;11.64;95.63
25080;BME280;13071;48.868;9.996;2023-03-19T09:00:03;96495.63;;;11.88;95.53
25080;BME280;13071;48.868;9.996;2023-03-19T09:02:33;96495.38;;;11.93;94.10
25080;BME280;13071;48.868;9.996;2023-03-19T09:05:00;96491.44;;;11.78;94.14
25080;BME280;13071;48.868;9.996;2023-03-19T09:07:26;96502.06;;;11.83;94.38
25080;BME280;13071;48.868;9.996;2023-03-19T09:09:53;96495.63;;;11.88;95.06
25080;BME280;13071;48.868;9.996;2023-03-19T09:12:19;96500.00;;;11.92;94.07
25080;BME280;13071;48.868;9.996;2023-03-19T09:14:46;96500.53;;;12.10;93.12
25080;BME280;13071;48.868;9.996;2023-03-19T09:17:13;96495.66;;;12.16;94.54
25080;BME280;13071;48.868;9.996;2023-03-19T09:19:41;96510.94;;;12.08;94.52
25080;BME280;13071;48.868;9.996;2023-03-19T09:22:07;96498.03;;;12.17;94.19
25080;BME280;13071;48.868;9.996;2023-03-19T09:24:34;96498.41;;;12.43;93.37
25080;BME280;13071;48.868;9.996;2023-03-19T09:27:01;96509.31;;;12.19;93.51
25080;BME280;13071;48.868;9.996;2023-03-19T09:29:28;96507.16;;;12.37;90.75
25080;BME280;13071;48.868;9.996;2023-03-19T09:31:54;96506.06;;;12.53;91.21
25080;BME280;13071;48.868;9.996;2023-03-19T09:34:21;96502.84;;;12.36;90.73
25080;BME280;13071;48.868;9.996;2023-03-19T09:36:49;96495.44;;;12.21;92.54
25080;BME280;13071;48.868;9.996;2023-03-19T09:39:15;96509.94;;;12.52;92.26
25080;BME280;13071;48.868;9.996;2023-03-19T09:41:51;96498.47;;;12.59;91.28
25080;BME280;13071;48.868;9.996;2023-03-19T09:44:27;96505.78;;;12.43;93.72
25080;BME280;13071;48.868;9.996;2023-03-19T09:46:57;96501.28;;;12.63;92.95
25080;BME280;13071;48.868;9.996;2023-03-19T09:49:32;96492.25;;;12.59;90.15
25080;BME280;13071;48.868;9.996;2023-03-19T09:52:13;96494.16;;;12.58;90.89
25080;BME280;13071;48.868;9.996;2023-03-19T09:54:45;96494.69;;;12.48;88.98
25080;BME280;13071;48.868;9.996;2023-03-19T09:57:13;96486.56;;;12.64;89.96
25080;BME280;13071;48.868;9.996;2023-03-19T09:59:41;96486.56;;;12.91;88.56
25080;BME280;13071;48.868;9.996;2023-03-19T10:02:32;96483.94;;;12.95;86.95
25080;BME280;13071;48.868;9.996;2023-03-19T10:05:10;96473.53;;;12.97;86.26
25080;BME280;13071;48.868;9.996;2023-03-19T10:07:54;96479.72;;;12.97;85.03
25080;BME280;13071;48.868;9.996;2023-03-19T10:10:44;96484.09;;;13.30;83.21
25080;BME280;13071;48.868;9.996;2023-03-19T10:13:21;96485.06;;;13.22;83.70
25080;BME280;13071;48.868;9.996;2023-03-19T10:15:52;96478.91;;;13.40;82.46
25080;BME280;13071;48.868;9.996;2023-03-19T10:18:21;96471.28;;;13.46;80.29
25080;BME280;13071;48.868;9.996;2023-03-19T10:20:53;96474.16;;;13.69;80.56
25080;BME280;13071;48.868;9.996;2023-03-19T10:23:38;96473.81;;;13.70;78.76
25080;BME280;13071;48.868;9.996;2023-03-19T10:26:10;96475.88;;;13.77;77.23
25080;BME280;13071;48.868;9.996;2023-03-19T10:28:40;96475.50;;;13.94;76.66
25080;BME280;13071;48.868;9.996;2023-03-19T10:31:17;96473.09;;;14.08;73.94
25080;BME280;13071;48.868;9.996;2023-03-19T10:33:55;96468.94;;;13.95;75.13
25080;BME280;13071;48.868;9.996;2023-03-19T10:36:26;96470.47;;;13.96;70.91
25080;BME280;13071;48.868;9.996;2023-03-19T10:38:57;96459.47;;;14.43;68.19
25080;BME280;13071;48.868;9.996;2023-03-19T10:41:31;96453.84;;;14.17;72.61
25080;BME280;13071;48.868;9.996;2023-03-19T10:44:01;96448.00;;;14.53;67.93
25080;BME280;13071;48.868;9.996;2023-03-19T10:46:36;96452.91;;;14.28;71.46
25080;BME280;13071;48.868;9.996;2023-03-19T10:49:02;96451.06;;;14.71;68.02
25080;BME280;13071;48.868;9.996;2023-03-19T10:51:30;96455.09;;;14.58;65.05
25080;BME280;13071;48.868;9.996;2023-03-19T10:53:59;96455.25;;;14.65;67.20
25080;BME280;13071;48.868;9.996;2023-03-19T10:56:27;96447.06;;;14.46;66.38
25080;BME280;13071;48.868;9.996;2023-03-19T10:58:57;96443.78;;;14.37;68.20
25080;BME280;13071;48.868;9.996;2023-03-19T11:01:27;96447.75;;;14.81;69.01
25080;BME280;13071;48.868;9.996;2023-03-19T11:03:56;96444.19;;;14.77;68.43
25080;BME280;13071;48.868;9.996;2023-03-19T11:06:25;96444.56;;;14.98;65.80
25080;BME280;13071;48.868;9.996;2023-03-19T11:08:55;96441.00;;;14.94;66.58
25080;BME280;13071;48.868;9.996;2023-03-19T11:11:26;96444.44;;;14.49;66.19
25080;BME280;13071;48.868;9.996;2023-03-19T11:13:58;96432.03;;;14.52;64.18
25080;BME280;13071;48.868;9.996;2023-03-19T11:16:30;96441.16;;;14.40;65.89
25080;BME280;13071;48.868;9.996;2023-03-19T11:18:57;96437.97;;;14.57;66.64
25080;BME280;13071;48.868;9.996;2023-03-19T11:21:28;96433.03;;;14.63;62.65
25080;BME280;13071;48.868;9.996;2023-03-19T11:23:59;96428.72;;;14.62;64.34
25080;BME280;13071;48.868;9.996;2023-03-19T11:26:28;96432.22;;;14.62;62.15
25080;BME280;13071;48.868;9.996;2023-03-19T11:29:01;96426.00;;;14.62;64.77
25080;BME280;13071;48.868;9.996;2023-03-19T11:31:33;96422.69;;;14.95;65.94
25080;BME280;13071;48.868;9.996;2023-03-19T11:34:19;96413.03;;;14.97;62.28
25080;BME280;13071;48.868;9.996;2023-03-19T11:36:54;96417.38;;;15.02;64.53
25080;BME280;13071;48.868;9.996;2023-03-19T11:39:26;96408.66;;;15.16;59.90
25080;BME280;13071;48.868;9.996;2023-03-19T11:45:16;96403.88;;;15.09;60.17
25080;BME280;13071;48.868;9.996;2023-03-19T11:47:50;96411.63;;;15.07;57.33
25080;BME280;13071;48.868;9.996;2023-03-19T11:50:25;96400.59;;;15.00;57.80
25080;BME280;13071;48.868;9.996;2023-03-19T11:53:13;96403.91;;;14.67;57.65
25080;BME280;13071;48.868;9.996;2023-03-19T11:55:50;96392.50;;;15.03;58.16
25080;BME280;13071;48.868;9.996;2023-03-19T11:58:46;96397.75;;;15.16;57.97
25080;BME280;13071;48.868;9.996;2023-03-19T12:01:27;96398.44;;;15.35;58.13
25080;BME280;13071;48.868;9.996;2023-03-19T12:04:14;96394.78;;;15.50;57.18
25080;BME280;13071;48.868;9.996;2023-03-19T12:06:50;96388.34;;;15.59;56.99
25080;BME280;13071;48.868;9.996;2023-03-19T12:09:26;96392.44;;;15.49;57.23
25080;BME280;13071;48.868;9.996;2023-03-19T12:11:58;96383.72;;;15.63;55.68
25080;BME280;13071;48.868;9.996;2023-03-19T12:14:41;96389.06;;;15.33;56.09
25080;BME280;13071;48.868;9.996;2023-03-19T12:17:28;96381.69;;;15.33;55.21
25080;BME280;13071;48.868;9.996;2023-03-19T12:20:10;96383.31;;;15.64;55.15
25080;BME280;13071;48.868;9.996;2023-03-19T12:22:48;96389.09;;;15.59;56.16
25080;BME280;13071;48.868;9.996;2023-03-19T12:25:25;96376.25;;;15.60;56.46
25080;BME280;13071;48.868;9.996;2023-03-19T12:27:56;96376.31;;;15.63;58.91
25080;BME280;13071;48.868;9.996;2023-03-19T12:30:32;96376.56;;;15.81;56.12
25080;BME280;13071;48.868;9.996;2023-03-19T12:33:10;96379.22;;;15.74;55.59
25080;BME280;13071;48.868;9.996;2023-03-19T12:35:40;96382.75;;;15.78;56.15
25080;BME280;13071;48.868;9.996;2023-03-19T12:38:11;96369.78;;;15.97;58.53
25080;BME280;13071;48.868;9.996;2023-03-19T12:40:42;96370.91;;;15.96;55.40
25080;BME280;13071;48.868;9.996;2023-03-19T12:43:16;96367.22;;;16.12;58.61
25080;BME280;13071;48.868;9.996;2023-03-19T12:45:47;96368.25;;;16.04;57.29
25080;BME280;13071;48.868;9.996;2023-03-19T12:48:21;96368.34;;;16.07;56.70
25080;BME280;13071;48.868;9.996;2023-03-19T12:50:53;96365.53;;;16.04;56.42
25080;BME280;13071;48.868;9.996;2023-03-19T12:53:29;96360.88;;;16.04;57.70
25080;BME280;13071;48.868;9.996;2023-03-19T12:56:03;96356.38;;;16.19;56.02
25080;BME280;13071;48.868;9.996;2023-03-19T12:58:38;96360.28;;;16.18;56.10
25080;BME280;13071;48.868;9.996;2023-03-19T13:01:11;96361.13;;;16.25;54.69
25080;BME280;13071;48.868;9.996;2023-03-19T13:03:43;96352.47;;;16.20;56.84
25080;BME280;13071;48.868;9.996;2023-03-19T13:06:18;96356.78;;;16.21;54.68
25080;BME280;13071;48.868;9.996;2023-03-19T13:08:49;96349.75;;;16.20;55.74
25080;BME280;13071;48.868;9.996;2023-03-19T13:11:34;96343.09;;;16.17;56.50
25080;BME280;13071;48.868;9.996;2023-03-19T13:14:12;96346.25;;;15.89;56.19
25080;BME280;13071;48.868;9.996;2023-03-19T13:16:45;96349.09;;;15.96;58.38
25080;BME280;13071;48.868;9.996;2023-03-19T13:19:20;96342.31;;;16.17;57.94